Time;durP1;ratioP1;P1;durP2;ratioP2;P2;SDS_P1;SDS_P2;PMS_P1;PMS_P2;Temp;Humidity;BMP_temperature;BMP_pressure;BME280_temperature;BME280_humidity;BME280_pressure;Samples;Min_cycle;Max_cycle;Signal;HPM_P1;HPM_P2
2024/04/13 00:00:25;;;;;;;0.00;0.00;;;;;;;10.73;100.00;101298.88;6462937;22;19990;-78
2024/04/13 00:02:54;;;;;;;0.00;0.00;;;;;;;10.80;100.00;101307.75;6570202;21;20007;-77
2024/04/13 00:05:22;;;;;;;0.00;0.00;;;;;;;10.70;100.00;101280.22;6580555;21;20011;-79
2024/04/13 00:07:59;;;;;;;;;;;;;;;;;;;;;
2024/04/13 00:10:30;;;;;;;0.00;0.00;;;;;;;10.81;100.00;101296.56;6581103;21;19992;-79
2024/04/13 00:12:56;;;;;;;0.00;0.00;;;;;;;10.81;100.00;101295.75;6545352;21;19992;-80
2024/04/13 00:15:37;;;;;;;;;;;;;;;;;;;;;
2024/04/13 00:18:06;;;;;;;0.00;0.00;;;;;;;10.92;100.00;101303.06;6593863;21;19996;-80
2024/04/13 00:20:31;;;;;;;0.00;0.00;;;;;;;11.06;100.00;101325.44;6542075;21;20506;-79
2024/04/13 00:23:56;;;;;;;;;;;;;;;;;;;;;
2024/04/13 00:26:35;;;;;;;;;;;;;;;;;;;;;
2024/04/13 00:29:05;;;;;;;0.00;0.00;;;;;;;11.03;100.00;101297.75;6575835;21;20003;-78
2024/04/13 00:36:08;;;;;;;;;;;;;;;;;;;;;
2024/04/13 00:38:41;;;;;;;0.00;0.00;;;;;;;11.37;100.00;101325.13;6084166;23;20140;-80
2024/04/13 00:48:32;;;;;;;0.00;0.00;;;;;;;11.53;100.00;101319.66;6241008;22;20004;-80
2024/04/13 00:51:12;;;;;;;;;;;;;;;;;;;;;
2024/04/13 00:53:40;;;;;;;0.00;0.00;;;;;;;11.20;100.00;101270.38;6320970;22;19996;-79
2024/04/13 00:56:07;;;;;;;0.00;0.00;;;;;;;11.56;100.00;101328.44;6512136;21;20011;-80
2024/04/13 00:58:39;;;;;;;0.00;0.00;;;;;;;11.46;100.00;101307.19;6580997;21;20101;-78
2024/04/13 01:06:00;;;;;;;;;;;;;;;;;;;;;
2024/04/13 01:15:43;;;;;;;0.00;0.00;;;;;;;11.45;100.00;101305.56;6398639;21;20048;-80
2024/04/13 01:18:39;;;;;;;0.00;0.00;;;;;;;11.12;100.00;101253.28;6477567;22;20076;-79
2024/04/13 01:21:15;;;;;;;0.00;0.00;;;;;;;11.48;100.00;101297.66;6409945;22;19990;-78
2024/04/13 01:24:07;;;;;;;0.00;0.00;;;;;;;11.31;100.00;101283.97;6475675;22;19998;-79
2024/04/13 01:26:38;;;;;;;0.00;0.00;;;;;;;11.32;100.00;101280.16;6473390;21;20118;-82
2024/04/13 01:29:07;;;;;;;0.00;0.00;;;;;;;11.10;100.00;101249.16;6475710;22;19998;-79
2024/04/13 01:31:37;;;;;;;0.00;0.00;;;;;;;11.09;100.00;101259.25;6474781;22;19998;-78
2024/04/13 01:34:07;;;;;;;0.10;0.10;;;;;;;11.15;100.00;101274.69;6476299;22;20068;-77
2024/04/13 01:36:53;;;;;;;0.00;0.00;;;;;;;11.18;100.00;101271.47;6476502;22;20152;-78
2024/04/13 01:39:31;;;;;;;;;;;;;;;;;;;;;
2024/04/13 01:42:10;;;;;;;;;;;;;;;;;;;;;
2024/04/13 01:44:47;;;;;;;0.00;0.00;;;;;;;11.35;100.00;101262.41;6629942;21;20007;-81
2024/04/13 01:47:36;;;;;;;0.00;0.00;;;;;;;11.61;100.00;101292.91;6593121;21;20007;-82
2024/04/13 01:50:47;;;;;;;0.00;0.00;;;;;;;11.58;100.00;101283.28;6595588;21;20068;-82
2024/04/13 01:53:21;;;;;;;0.00;0.00;;;;;;;11.55;100.00;101278.31;6590913;21;20241;-83
2024/04/13 01:55:59;;;;;;;;;;;;;;;;;;;;;
2024/04/13 01:58:44;;;;;;;;;;;;;;;;;;;;;
2024/04/13 02:01:10;;;;;;;0.00;0.00;;;;;;;11.34;100.00;101267.03;6635558;21;20000;-79
2024/04/13 02:07:02;;;;;;;;;;;;;;;11.52;100.00;101278.78;6637985;21;20000;-80
2024/04/13 02:09:37;;;;;;;;;;;;;;;;;;;;;
2024/04/13 02:12:23;;;;;;;;;;;;;;;;;;;;;
2024/04/13 02:14:52;;;;;;;0.00;0.00;;;;;;;11.26;100.00;101237.34;6637704;21;20007;-81
2024/04/13 02:17:22;;;;;;;0.00;0.00;;;;;;;11.58;100.00;101277.81;6638301;21;20031;-79
2024/04/13 02:19:50;;;;;;;0.00;0.00;;;;;;;11.60;100.00;101264.69;6549293;21;19995;-80
2024/04/13 02:22:39;;;;;;;0.00;0.00;;;;;;;11.36;100.00;101217.53;6549145;21;20007;-80
2024/04/13 02:28:45;;;;;;;;;;;;;;;;;;;;;
2024/04/13 02:34:34;;;;;;;0.00;0.00;;;;;;;11.42;100.00;101207.44;6637054;21;20010;-77
2024/04/13 02:37:12;;;;;;;0.00;0.00;;;;;;;11.53;100.00;101214.72;6589453;21;20016;-80
2024/04/13 02:39:39;;;;;;;0.00;0.00;;;;;;;11.34;100.00;101190.38;6507942;21;20000;-81
2024/04/13 02:42:05;;;;;;;0.00;0.00;;;;;;;11.40;100.00;101198.66;6588648;21;20021;-80
2024/04/13 02:44:30;;;;;;;0.00;0.00;;;;;;;11.53;100.00;101209.25;6591863;21;20000;-79
2024/04/13 02:47:09;;;;;;;0.00;0.00;;;;;;;11.77;100.00;101247.34;6591092;21;20004;-81
2024/04/13 02:49:34;;;;;;;0.00;0.00;;;;;;;11.46;100.00;101192.16;6588260;21;19992;-79
2024/04/13 02:53:04;;;;;;;0.00;0.00;;;;;;;11.67;100.00;101226.97;6637761;21;20046;-79
2024/04/13 02:58:48;;;;;;;;;;;;;;;;;;;;;
2024/04/13 03:02:29;;;;;;;;;;;;;;;;;;;;;
2024/04/13 03:09:12;;;;;;;0.00;0.00;;;;;;;11.26;100.00;101160.69;6229915;23;19997;-78
2024/04/13 03:15:19;;;;;;;0.00;0.00;;;;;;;11.23;100.00;101166.69;6389197;22;19923;-79
2024/04/13 03:18:08;;;;;;;0.00;0.00;;;;;;;11.14;100.00;101170.91;6426697;22;20002;-78
2024/04/13 03:20:44;;;;;;;0.00;0.00;;;;;;;11.18;100.00;101172.91;6425885;22;20010;-78
2024/04/13 03:23:09;;;;;;;0.00;0.00;;;;;;;11.06;100.00;101168.63;6492975;21;20287;-81
2024/04/13 03:25:35;;;;;;;0.00;0.00;;;;;;;11.08;100.00;101174.66;6593526;21;19996;-81
2024/04/13 03:28:43;;;;;;;;;;;;;;;;;;;;;
2024/04/13 03:31:30;;;;;;;0.00;0.00;;;;;;;11.21;100.00;101201.69;6508754;21;19995;-81
2024/04/13 03:34:04;;;;;;;0.00;0.00;;;;;;;11.23;100.00;101210.50;6582352;21;19996;-79
2024/04/13 03:36:33;;;;;;;0.10;0.10;;;;;;;11.14;100.00;101173.66;6590636;21;20011;-81
2024/04/13 03:39:03;;;;;;;0.00;0.00;;;;;;;11.12;100.00;101164.88;6590703;21;19992;-81
2024/04/13 03:41:59;;;;;;;;;;;;;;;;;;;;;
2024/04/13 03:44:25;;;;;;;0.00;0.00;;;;;;;11.02;100.00;101142.81;6636303;21;19996;-79
2024/04/13 03:46:50;;;;;;;0.00;0.00;;;;;;;11.06;100.00;101144.81;6590421;21;19995;-79
2024/04/13 03:49:18;;;;;;;0.00;0.00;;;;;;;11.05;100.00;101136.84;6591605;21;20109;-80
2024/04/13 03:51:53;;;;;;;;;;;;;;;;;;;;;
2024/04/13 03:55:38;;;;;;;0.00;0.00;;;;;;;10.95;100.00;101135.63;6638423;21;20006;-81
2024/04/13 03:58:11;;;;;;;;;;;;;;;;;;;;;
2024/04/13 04:00:57;;;;;;;0.00;0.00;;;;;;;11.18;100.00;101174.81;6552000;21;20003;-81
2024/04/13 04:13:01;;;;;;;0.00;0.00;;;;;;;11.08;100.00;101125.41;6319191;22;20092;-79
2024/04/13 04:15:36;;;;;;;;;;;;;;;;;;;;;
2024/04/13 04:18:23;;;;;;;0.00;0.00;;;;;;;11.03;100.00;101109.72;6477906;22;19990;-77
2024/04/13 04:21:42;;;;;;;;;;;;;;;;;;;;;
2024/04/13 04:24:15;;;;;;;0.00;0.00;;;;;;;11.38;100.00;101146.88;6464039;22;20312;-77
2024/04/13 04:26:41;;;;;;;0.00;0.00;;;;;;;11.26;100.00;101116.88;6394649;22;20076;-77
2024/04/13 04:29:06;;;;;;;0.00;0.00;;;;;;;11.37;100.00;101136.19;6436620;22;20005;-79
2024/04/13 04:31:32;;;;;;;0.00;0.00;;;;;;;11.26;100.00;101119.63;6479745;22;20006;-79
2024/04/13 04:34:00;;;;;;;0.00;0.00;;;;;;;11.43;100.00;101149.69;6436760;22;20002;-79
2024/04/13 04:36:26;;;;;;;0.00;0.00;;;;;;;11.44;100.00;101147.78;6395643;22;19998;-79
2024/04/13 04:38:51;;;;;;;0.00;0.00;;;;;;;11.26;100.00;101124.28;6435514;22;20070;-78
2024/04/13 04:41:26;;;;;;;0.00;0.00;;;;;;;11.18;100.00;101107.22;6438013;22;20004;-80
2024/04/13 04:44:12;;;;;;;0.00;0.00;;;;;;;11.39;100.00;101145.81;6435979;22;20002;-81
2024/04/13 04:46:40;;;;;;;0.00;0.00;;;;;;;11.39;100.00;101142.22;6410599;22;19990;-80
2024/04/13 04:49:30;;;;;;;;;;;;;;;;;;;;;
2024/04/13 04:51:56;;;;;;;0.00;0.00;;;;;;;11.30;100.00;101122.66;6441327;22;20036;-83
2024/04/13 04:54:21;;;;;;;0.00;0.00;;;;;;;11.37;100.00;101137.00;6479130;22;20331;-82
2024/04/13 05:00:25;;;;;;;0.00;0.00;;;;;;;11.45;100.00;101141.25;6469495;22;19990;-81
2024/04/13 05:02:53;;;;;;;0.00;0.00;;;;;;;11.37;100.00;101122.50;6437643;22;20073;-77
2024/04/13 05:05:18;;;;;;;0.00;0.00;;;;;;;11.45;100.00;101142.06;6437365;22;20010;-77
2024/04/13 05:07:45;;;;;;;0.00;0.00;;;;;;;11.46;100.00;101140.13;6393959;22;20050;-76
2024/04/13 05:13:47;;;;;;;0.00;0.00;;;;;;;11.56;100.00;101143.00;6564288;21;20046;-82
2024/04/13 05:17:06;;;;;;;0.00;0.00;;;;;;;11.73;100.00;101166.78;6446523;22;19997;-77
2024/04/13 05:19:39;;;;;;;0.00;0.00;;;;;;;11.49;100.00;101120.44;6535707;22;20068;-81
2024/04/13 05:22:15;;;;;;;0.00;0.00;;;;;;;11.34;100.00;101097.25;6533403;22;20001;-82
2024/04/13 05:25:11;;;;;;;;;;;;;;;;;;;;;
2024/04/13 05:27:39;;;;;;;0.10;0.10;;;;;;;11.51;100.00;101129.25;6533568;22;19997;-80
2024/04/13 05:30:06;;;;;;;0.00;0.00;;;;;;;11.50;100.00;101124.84;6529469;22;20296;-79
2024/04/13 05:32:33;;;;;;;0.00;0.00;;;;;;;11.68;100.00;101151.94;6529788;22;20013;-78
2024/04/13 05:35:11;;;;;;;;;;;;;;;;;;;;;
2024/04/13 05:37:36;;;;;;;0.00;0.00;;;;;;;11.77;100.00;101157.78;6529522;22;20197;-81
2024/04/13 05:41:09;;;;;;;0.00;0.00;;;;;;;11.79;100.00;101154.78;6529781;22;20007;-80
2024/04/13 05:51:52;;;;;;;;;;;;;;;;;;;;;
2024/04/13 05:58:23;;;;;;;;;;;;;;;;;;;;;
2024/04/13 06:00:30;;;;;;;;;;;;;;;;;;;;;
2024/04/13 06:03:00;;;;;;;0.00;0.00;;;;;;;11.88;100.00;101134.06;6536155;22;20001;-81
2024/04/13 06:19:48;;;;;;;0.10;0.10;;;;;;;12.04;100.00;101135.88;6588258;21;20482;-81
2024/04/13 06:22:24;;;;;;;;;;;;;;;;;;;;;
2024/04/13 06:24:56;;;;;;;0.00;0.00;;;;;;;12.11;100.00;101126.66;6586794;21;20334;-78
2024/04/13 06:38:58;;;;;;;;;;;;;;;;;;;;;
2024/04/13 06:41:40;;;;;;;0.00;0.00;;;;;;;12.22;100.00;101115.53;6372682;22;20007;-78
2024/04/13 06:44:05;;;;;;;0.00;0.00;;;;;;;12.05;100.00;101092.88;6417839;22;20382;-82
2024/04/13 06:46:33;;;;;;;0.00;0.00;;;;;;;11.91;100.00;101073.25;6434374;22;20030;-79
2024/04/13 06:49:07;;;;;;;0.00;0.00;;;;;;;12.05;100.00;101095.63;6473482;22;20124;-79
2024/04/13 06:51:35;;;;;;;0.00;0.00;;;;;;;12.12;100.00;101095.38;6435998;22;19998;-82
2024/04/13 06:54:01;;;;;;;0.00;0.00;;;;;;;11.96;100.00;101067.84;6480103;21;20439;-79
2024/04/13 06:56:28;;;;;;;0.10;0.10;;;;;;;12.03;100.00;101071.22;6537913;21;20007;-77
2024/04/13 06:58:54;;;;;;;0.00;0.00;;;;;;;12.04;100.00;101064.63;6538827;21;20071;-77
2024/04/13 07:01:19;;;;;;;0.00;0.00;;;;;;;12.15;100.00;101075.69;6582109;21;19996;-78
2024/04/13 07:03:45;;;;;;;0.00;0.00;;;;;;;12.38;100.00;101101.94;6538360;21;19993;-79
2024/04/13 07:06:10;;;;;;;0.00;0.00;;;;;;;12.34;100.00;101071.47;6536943;21;19995;-79
2024/04/13 07:08:45;;;;;;;0.00;0.00;;;;;;;12.51;100.00;101092.44;6538500;21;20011;-79
2024/04/13 07:11:35;;;;;;;;;;;;;;;;;;;;;
2024/04/13 07:14:20;;;;;;;;;;;;;;;;;;;;;
2024/04/13 07:17:19;;;;;;;;;;;;;;;12.54;100.00;101092.75;6502171;21;20011;-78
2024/04/13 07:20:06;;;;;;;0.00;0.00;;;;;;;12.47;100.00;101058.38;6534615;21;19929;-78
2024/04/13 07:22:35;;;;;;;0.00;0.00;;;;;;;12.32;100.00;101035.25;6535551;21;20001;-77
2024/04/13 07:29:13;;;;;;;0.00;0.00;;;;;;;12.35;100.00;101044.88;6585590;21;20040;-77
2024/04/13 07:31:38;;;;;;;;;;;;;;;12.93;100.00;101088.88;6508073;21;19997;-77
2024/04/13 07:34:04;;;;;;;0.00;0.00;;;;;;;12.96;100.00;101077.38;6496843;21;19928;-76
2024/04/13 07:36:29;;;;;;;0.00;0.00;;;;;;;13.15;100.00;101079.66;6453790;21;20075;-76
2024/04/13 07:38:55;;;;;;;0.10;0.10;;;;;;;12.92;100.00;101060.63;6582308;21;20007;-77
2024/04/13 07:41:20;;;;;;;0.00;0.00;;;;;;;12.98;100.00;101055.97;6495788;21;20004;-76
2024/04/13 07:43:46;;;;;;;0.00;0.00;;;;;;;13.10;100.00;101053.84;6495196;21;20004;-78
2024/04/13 07:46:11;;;;;;;0.00;0.00;;;;;;;12.86;100.00;101033.38;6495612;21;20007;-76
2024/04/13 07:48:36;;;;;;;0.00;0.00;;;;;;;12.74;100.00;101036.34;6454648;21;19997;-78
2024/04/13 07:51:04;;;;;;;0.00;0.00;;;;;;;12.74;100.00;101053.63;6540791;21;19980;-77
2024/04/13 07:53:42;;;;;;;0.00;0.00;;;;;;;12.55;100.00;101016.75;6498309;21;20043;-76
2024/04/13 07:56:07;;;;;;;0.00;0.00;;;;;;;12.58;100.00;101014.28;6496771;21;20024;-77
2024/04/13 07:58:33;;;;;;;0.00;0.00;;;;;;;12.77;100.00;101035.00;6540354;21;19997;-77
2024/04/13 08:01:01;;;;;;;0.00;0.00;;;;;;;12.73;100.00;101031.94;6539601;21;20425;-76
2024/04/13 08:03:27;;;;;;;0.00;0.00;;;;;;;12.78;100.00;101036.66;6536763;21;20074;-77
2024/04/13 08:06:02;;;;;;;;;;;;;;;;;;;;;
2024/04/13 08:08:31;;;;;;;0.00;0.00;;;;;;;13.03;100.00;101012.06;6583407;21;19996;-76
2024/04/13 08:10:56;;;;;;;0.00;0.00;;;;;;;13.27;100.00;101036.31;6583835;21;19993;-76
2024/04/13 08:13:21;;;;;;;0.00;0.00;;;;;;;13.30;100.00;101068.72;6537346;21;20430;-77
2024/04/13 08:15:47;;;;;;;0.00;0.00;;;;;;;13.33;100.00;101076.47;6494717;21;20014;-77
2024/04/13 08:18:26;;;;;;;0.00;0.00;;;;;;;13.33;100.00;101065.47;6494636;21;19997;-76
2024/04/13 08:21:11;;;;;;;0.00;0.00;;;;;;;13.36;100.00;101048.47;6460870;21;20074;-77
2024/04/13 08:23:40;;;;;;;0.00;0.00;;;;;;;13.57;100.00;101045.78;6537106;21;19996;-77
2024/04/13 08:26:24;;;;;;;;;;;;;;;;;;;;;
2024/04/13 08:28:58;;;;;;;0.00;0.00;;;;;;;14.13;97.34;101040.38;6582395;21;20292;-76
2024/04/13 08:31:26;;;;;;;0.00;0.00;;;;;;;14.38;97.17;101073.63;6538335;21;20011;-75
2024/04/13 08:33:51;;;;;;;0.00;0.00;;;;;;;14.27;95.09;101061.81;6538181;21;19997;-76
2024/04/13 08:36:19;;;;;;;0.00;0.00;;;;;;;14.37;95.58;101045.31;6545314;21;20007;-77
2024/04/13 08:38:48;;;;;;;0.00;0.00;;;;;;;15.03;96.44;101062.81;6504278;21;20008;-76
2024/04/13 08:41:25;;;;;;;0.00;0.00;;;;;;;16.26;90.04;101038.41;6583472;21;20009;-77
2024/04/13 08:43:53;;;;;;;0.00;0.00;;;;;;;17.72;79.46;101027.03;6580939;21;20011;-75
2024/04/13 08:46:27;;;;;;;0.00;0.00;;;;;;;18.10;68.38;101031.75;6494457;21;20012;-77
2024/04/13 08:49:20;;;;;;;0.00;0.00;;;;;;;16.63;73.04;101025.91;6536015;21;19992;-78
2024/04/13 08:51:47;;;;;;;0.00;0.00;;;;;;;15.99;77.45;101020.41;6536450;21;19997;-76
2024/04/13 08:54:13;;;;;;;0.00;0.00;;;;;;;15.89;79.95;101046.16;6535119;21;19992;-76
2024/04/13 08:56:41;;;;;;;0.00;0.00;;;;;;;16.41;80.86;101024.47;6494658;21;20024;-77
2024/04/13 08:59:10;;;;;;;0.00;0.00;;;;;;;18.30;72.49;101012.00;6493054;21;19996;-75
2024/04/13 09:01:37;;;;;;;0.00;0.00;;;;;;;20.35;64.35;101036.47;6536018;21;19996;-75
2024/04/13 09:04:14;;;;;;;;;;;;;;;;;;;;;
2024/04/13 09:06:48;;;;;;;0.00;0.00;;;;;;;20.43;55.80;101031.28;6581875;21;20000;-76
2024/04/13 09:09:16;;;;;;;0.00;0.00;;;;;;;19.87;56.06;101001.03;6536254;21;20606;-76
2024/04/13 09:12:24;;;;;;;0.00;0.00;;;;;;;21.31;53.28;101049.97;6577448;21;20006;-75
2024/04/13 09:24:12;;;;;;;;;;;;;;;;;;;;;
2024/04/13 09:27:05;;;;;;;;;;;;;;;;;;;;;
2024/04/13 09:36:46;;;;;;;;;;;;;;;;;;;;;
2024/04/13 09:39:44;;;;;;;0.00;0.00;;;;;;;27.12;37.28;101013.75;6530792;22;20001;-76
2024/04/13 09:42:49;;;;;;;;;;;;;;;;;;;;;
2024/04/13 09:45:50;;;;;;;0.00;0.00;;;;;;;29.62;32.73;101053.78;6577144;21;20004;-79
2024/04/13 09:48:16;;;;;;;0.00;0.00;;;;;;;30.01;32.53;101013.22;6424465;22;20005;-78
2024/04/13 09:50:44;;;;;;;0.00;0.00;;;;;;;30.46;31.70;101036.66;6396346;22;20078;-77
2024/04/13 10:07:32;;;;;;;;;;;;;;;;;;;;;
2024/04/13 11:22:26;;;;;;;;;;;;;;;;;;;;;
2024/04/13 11:24:51;;;;;;;0.00;0.00;;;;;;;36.05;21.66;100931.28;6580757;21;20007;-76
2024/04/13 11:38:53;;;;;;;;;;;;;;;;;;;;;
2024/04/13 11:54:10;;;;;;;0.00;0.00;;;;;;;36.47;20.84;100905.41;6617466;21;20229;-75
2024/04/13 15:50:40;;;;;;;0.00;0.00;;;;;;;20.53;49.83;100803.22;6530549;22;20008;-77
2024/04/13 16:00:59;;;;;;;;;;;;;;;;;;;;;
2024/04/13 16:25:47;;;;;;;0.00;0.00;;;;;;;17.70;62.11;100812.75;5790012;24;20062;-78
2024/04/13 16:50:13;;;;;;;0.00;0.00;;;;;;;16.91;69.43;100858.53;5847221;24;20048;-77
2024/04/13 17:34:12;;;;;;;0.00;0.00;;;;;;;16.31;72.87;100825.88;6526233;22;19989;-75
2024/04/13 17:37:26;;;;;;;0.00;0.00;;;;;;;16.15;73.61;100839.03;6478165;22;20021;-77
2024/04/13 17:47:02;;;;;;;0.00;0.00;;;;;;;15.61;76.55;100869.31;6010173;23;20023;-77
2024/04/13 17:53:13;;;;;;;;;;;;;;;;;;;;;
2024/04/13 17:56:33;;;;;;;0.00;0.00;;;;;;;15.54;76.55;100897.22;5990099;23;20008;-77
2024/04/13 18:00:28;;;;;;;;;;;;;;;;;;;;;
2024/04/13 18:13:39;;;;;;;;;;;;;;;;;;;;;
2024/04/13 18:16:37;;;;;;;;;;;;;;;;;;;;;
2024/04/13 18:22:47;;;;;;;0.00;0.00;;;;;;;14.42;84.21;100893.97;6006490;23;20003;-76
2024/04/13 18:25:12;;;;;;;0.00;0.00;;;;;;;14.16;85.60;100886.91;6087458;23;20020;-75
2024/04/13 18:27:40;;;;;;;0.00;0.00;;;;;;;13.76;87.71;100850.97;6027303;23;20000;-76
2024/04/13 18:36:53;;;;;;;0.00;0.00;;;;;;;13.32;92.68;100838.59;5965566;23;20002;-75
2024/04/13 18:39:43;;;;;;;;;;;;;;;;;;;;;
2024/04/13 18:42:57;;;;;;;0.00;0.00;;;;;;;13.18;95.00;100876.72;6091893;23;20268;-77
2024/04/13 18:45:29;;;;;;;0.00;0.00;;;;;;;13.09;95.91;100892.91;6212670;23;19997;-78
2024/04/13 18:48:03;;;;;;;0.00;0.00;;;;;;;12.96;97.06;100882.47;6528242;21;19992;-76
2024/04/13 18:51:23;;;;;;;;;;;;;;;;;;;;;
2024/04/13 18:54:25;;;;;;;;;;;;;;;;;;;;;
2024/04/13 18:57:26;;;;;;;0.00;0.00;;;;;;;12.64;99.34;100882.66;6567988;21;20004;-77
2024/04/13 19:00:35;;;;;;;0.00;0.00;;;;;;;12.55;99.83;100893.31;6579566;21;20008;-77
2024/04/13 19:03:36;;;;;;;0.00;0.00;;;;;;;12.56;100.00;100909.50;6577105;21;20003;-78
2024/04/13 19:06:04;;;;;;;0.00;0.00;;;;;;;12.43;100.00;100896.28;6330727;22;20015;-76
2024/04/13 19:08:39;;;;;;;0.00;0.00;;;;;;;12.34;100.00;100901.44;6330854;22;19995;-76
2024/04/13 19:11:05;;;;;;;0.00;0.00;;;;;;;12.26;100.00;100899.19;6376033;22;20014;-78
2024/04/13 19:22:31;;;;;;;;;;;;;;;;;;;;;
2024/04/13 19:28:10;;;;;;;0.00;0.00;;;;;;;12.11;100.00;100967.66;6135458;22;19998;-75
2024/04/13 19:34:01;;;;;;;0.00;0.00;;;;;;;11.67;100.00;100942.06;6423825;21;20011;-77
2024/04/13 19:37:03;;;;;;;0.00;0.00;;;;;;;11.85;100.00;100990.16;6532818;21;20121;-77
2024/04/13 19:39:34;;;;;;;0.00;0.00;;;;;;;11.42;100.00;100930.84;6531859;21;19995;-76
2024/04/13 19:42:01;;;;;;;0.00;0.00;;;;;;;11.30;100.00;100915.44;6493480;21;20040;-77
2024/04/13 19:44:27;;;;;;;0.00;0.00;;;;;;;11.50;100.00;100957.78;6532942;21;20008;-77
2024/04/13 19:46:52;;;;;;;0.00;0.00;;;;;;;11.64;100.00;100985.59;6491932;21;19989;-77
2024/04/13 19:49:32;;;;;;;0.00;0.00;;;;;;;11.53;100.00;100980.03;6489373;21;20072;-77
2024/04/13 19:51:58;;;;;;;0.00;0.00;;;;;;;11.38;100.00;100959.88;6495880;21;20073;-79
2024/04/13 19:54:41;;;;;;;;;;;;;;;;;;;;;
2024/04/13 19:57:10;;;;;;;0.00;0.00;;;;;;;11.52;100.00;101010.38;6503356;21;19992;-77
2024/04/13 20:00:21;;;;;;;0.00;0.00;;;;;;;11.20;100.00;100970.09;6535455;21;20008;-77
2024/04/13 20:02:47;;;;;;;0.00;0.00;;;;;;;11.17;100.00;100976.06;6578806;21;20001;-78
2024/04/13 20:05:17;;;;;;;0.00;0.00;;;;;;;11.20;100.00;100980.19;6582648;21;20007;-78
2024/04/13 20:08:10;;;;;;;0.00;0.00;;;;;;;11.60;100.00;101020.88;6494258;21;20047;-77
2024/04/13 20:14:18;;;;;;;0.00;0.00;;;;;;;11.64;100.00;100991.06;6572689;21;20008;-78
2024/04/13 20:19:35;;;;;;;0.03;0.03;;;;;;;11.92;100.00;101009.13;6582121;21;20303;-75
2024/04/13 20:22:04;;;;;;;0.00;0.00;;;;;;;11.82;100.00;100989.84;6491400;21;19996;-77
2024/04/13 20:24:29;;;;;;;0.00;0.00;;;;;;;11.91;100.00;101004.72;6492392;21;20036;-76
2024/04/13 20:26:57;;;;;;;0.00;0.00;;;;;;;11.87;100.00;101000.84;6537775;21;19992;-76
2024/04/13 20:29:32;;;;;;;0.00;0.00;;;;;;;11.70;100.00;100977.16;6525430;21;20398;-76
2024/04/13 20:32:22;;;;;;;0.00;0.00;;;;;;;11.72;99.52;101000.72;6590051;21;20483;-77
2024/04/13 20:35:02;;;;;;;;;;;;;;;;;;;;;
2024/04/13 20:37:57;;;;;;;0.00;0.00;;;;;;;11.37;98.38;100963.69;6635077;21;20006;-79
2024/04/13 21:10:28;;;;;;;;;;;;;;;;;;;;;
2024/04/13 21:50:19;;;;;;;0.00;0.00;;;;;;;11.21;96.62;101064.78;5846309;21;16094272;-78
2024/04/13 21:52:48;;;;;;;0.00;0.00;;;;;;;11.06;96.00;101037.25;6380916;22;20359;-77
2024/04/13 21:55:28;;;;;;;0.00;0.00;;;;;;;11.32;96.07;101093.97;6383551;22;20123;-78
2024/04/13 21:57:58;;;;;;;0.00;0.00;;;;;;;11.28;96.17;101092.81;6381508;22;20078;-77
2024/04/13 22:00:26;;;;;;;0.00;0.00;;;;;;;10.97;96.16;101054.09;6343596;22;19999;-76
2024/04/13 22:09:49;;;;;;;0.00;0.00;;;;;;;10.79;98.49;101095.41;6643688;21;20042;-77
2024/04/13 22:12:17;;;;;;;0.00;0.00;;;;;;;10.75;98.85;101073.22;6567840;21;20000;-76
2024/04/13 22:14:46;;;;;;;0.10;0.10;;;;;;;10.82;98.58;101092.22;6592082;21;20029;-76
2024/04/13 22:17:11;;;;;;;0.00;0.00;;;;;;;10.67;98.99;101070.09;6592300;21;20005;-75
2024/04/13 22:19:37;;;;;;;0.00;0.00;;;;;;;10.58;99.44;101070.50;6639884;21;19999;-74
2024/04/13 22:22:02;;;;;;;0.00;0.00;;;;;;;10.52;99.54;101068.78;6549201;21;20002;-78
2024/04/13 22:24:28;;;;;;;0.00;0.00;;;;;;;10.45;100.00;101068.09;6640740;21;20010;-75
2024/04/13 22:27:09;;;;;;;;;;;;;;;;;;;;;
2024/04/13 22:29:42;;;;;;;0.00;0.00;;;;;;;10.32;100.00;101080.16;6639990;21;19996;-75
2024/04/13 22:32:44;;;;;;;;;;;;;;;;;;;;;
2024/04/13 22:35:27;;;;;;;0.00;0.00;;;;;;;10.02;100.00;101064.94;6419538;21;20002;-76
2024/04/13 22:38:10;;;;;;;0.00;0.00;;;;;;;9.89;100.00;101049.66;6592467;21;20387;-76
2024/04/13 22:41:06;;;;;;;0.00;0.00;;;;;;;10.04;100.00;101092.81;6552089;21;20065;-75
2024/04/13 22:43:27;;;;;;;0.00;0.00;;;;;;;10.20;100.00;101110.31;6616245;21;20415;-75
2024/04/13 22:45:57;;;;;;;0.00;0.00;;;;;;;10.00;100.00;101077.16;6540877;21;19999;-75
2024/04/13 22:48:23;;;;;;;0.00;0.00;;;;;;;9.96;100.00;101072.19;6539776;21;20000;-75
2024/04/13 22:50:49;;;;;;;0.00;0.00;;;;;;;10.03;100.00;101084.88;6585127;21;20010;-75
2024/04/13 22:53:14;;;;;;;0.00;0.00;;;;;;;9.96;100.00;101076.84;6538820;21;19991;-75
2024/04/13 22:55:40;;;;;;;0.00;0.00;;;;;;;9.87;100.00;101068.22;6538488;21;20004;-75
2024/04/13 22:58:24;;;;;;;0.00;0.00;;;;;;;9.91;100.00;101083.03;6629756;21;20417;-75
2024/04/13 23:00:59;;;;;;;0.00;0.00;;;;;;;9.53;100.00;101045.44;6505339;21;20006;-76
2024/04/13 23:03:27;;;;;;;0.00;0.00;;;;;;;9.59;100.00;101066.31;6586216;21;20386;-76
2024/04/13 23:05:57;;;;;;;0.00;0.00;;;;;;;9.70;100.00;101091.94;6588066;21;19992;-77
2024/04/13 23:08:22;;;;;;;0.00;0.00;;;;;;;9.55;100.00;101079.63;6634738;21;19999;-77
2024/04/13 23:11:36;;;;;;;;;;;;;;;;;;;;;
2024/04/13 23:14:07;;;;;;;0.00;0.00;;;;;;;9.52;100.00;101071.94;6635129;21;20046;-77
2024/04/13 23:17:09;;;;;;;;;;;;;;;;;;;;;
2024/04/13 23:19:48;;;;;;;;;;;;;;;;;;;;;
2024/04/13 23:22:55;;;;;;;;;;;;;;;;;;;;;
2024/04/13 23:25:41;;;;;;;;;;;;;;;;;;;;;
2024/04/13 23:28:15;;;;;;;0.00;0.00;;;;;;;9.48;100.00;101080.88;6632649;21;19992;-77
2024/04/13 23:31:02;;;;;;;;;;;;;;;;;;;;;
2024/04/13 23:33:40;;;;;;;0.00;0.00;;;;;;;9.57;100.00;101118.44;6631300;21;20014;-76
2024/04/13 23:40:05;;;;;;;;;;;;;;;;;;;;;
2024/04/13 23:42:46;;;;;;;0.00;0.00;;;;;;;9.26;100.00;101089.69;6618739;21;20061;-77
2024/04/13 23:45:16;;;;;;;0.00;0.00;;;;;;;9.14;100.00;101084.28;6563161;21;20390;-77
2024/04/13 23:47:44;;;;;;;0.00;0.00;;;;;;;8.95;100.00;101066.38;6586292;21;19996;-77
2024/04/13 23:50:22;;;;;;;;;;;;;;;;;;;;;
2024/04/13 23:52:48;;;;;;;0.00;0.00;;;;;;;9.12;100.00;101116.41;6630751;21;20000;-77
2024/04/13 23:55:16;;;;;;;0.00;0.00;;;;;;;9.19;100.00;101128.03;6587499;21;19996;-76
2024/04/13 23:57:43;;;;;;;0.00;0.00;;;;;;;9.10;100.00;101121.28;6585747;21;20003;-77
